Aeroporto :
LOGIN :

Iscrizione | Disclaimer

   EN    FR    IT 

 










Sommario :    VFR   VFR Marginale   IFR   IFR Intensivo   IFR Molto Intensivo
Visibilità : 
Base nubi : 
>= 8 km
>= 3000ft
5 / 8 km
1000 / 3000 ft
1500m / 5 km
500 / 1000 ft
800 / 1500m
200 / 500 ft
< 800m
< 200 ft
Simboli :   Temporali  Nebbia  Neve Forte  Precipitazioni Forti  Vento > 20 kt
SIGMETs :   Varie  Temporali  Ghiacco  Turbolenza  Onda orograficha  Ceneri Vulcaniche






- Altitudine del aeroporto : 1475 ft


LSZC - Buochs Stans

ULTIMO METAR :
  • 120350Z AUTO 25004KT 210V270 9999 FEW065 SCT075 01/00 Q1007

METARs OBSOLETI :
  • 120320Z AUTO VRB02KT 8000 FEW095 OVC110 01/00 Q1007
  • 120250Z AUTO 21004KT 9999 BKN120 BKN130 01/00 Q1007
  • 120220Z AUTO 22004KT 8000 FEW008 SCT130 BKN140 01/00 Q1008
  • 120150Z AUTO 28003KT 9999 BKN008 SCT012 02/01 Q1008
  • 120120Z AUTO 25002KT 9999 BKN010 BKN012 BKN110 01/00 Q1008

Previsioni scadute.



MetMap, La meteo Aeronautica in un colpo d'occhio ! - Copyright ORBIFLY Dicembre 2007 - Disclaimer

ORBIFLY MET'MAP TEAM :

Programmazione e sviluppo : Alexandra Zaïnal
Concezione : Baudouin d'Aumeries
Aiuto per la programmazione : Marc-Olivier Méhu
Supporto tecnico e logistico : Manuel Goepfert
Aiuto per la traduzione : Arnaldo La Scala

Contatto : metmap@orbifly.com




FONTI E CREDITI :

   NOAA